(°C)
24°
22°
20°
18°
17°
16°
15°
(°C)
22°
22°
20°
19°
17°
16°
15°
O
O
ONO
NO
NNE
NNE
NNE
(km/h)
14-24
8-18
6-15
6-10
4-11
4-9
4-7
(mm)
0
0
0
0
0
0
0
(%)
0
0
0
0
0
0
0

Elevação do sol

/ -2.9°
sun-icon
UV 7
07:21
19:38
Lua cheia (187°)
20:11
07:31

METAR para Ioánnina (LGIO)

Hora Condições Temperatura/
Ponto de condensação
Vento Visibilidade Tempo Nuvens Pressão Mudança Bruto
24°C / 13°C 310º variable 250º to 320º 4kt - 1019 - LGIO 211620Z AUTO 31004KT 250V320 //// // ////// 24/13 Q1019 RE//
25°C / 13°C 290º variable 250º to 320º 6kt - 1019 - LGIO 211550Z AUTO 29006KT 250V320 //// // ////// 25/13 Q1019 RE//
26°C / 13°C 290º variable 250º to 320º 6kt - 1019 - LGIO 211520Z AUTO 29006KT 250V320 //// // ////// 26/13 Q1019 RE//
27°C / 13°C 300º variable 240º to 330º 7kt - 1019 - LGIO 211450Z AUTO 30007KT 240V330 //// // ////// 27/13 Q1019 RE//
27°C / 13°C 320º variable 270º to 360º 6kt - 1019 - LGIO 211420Z AUTO 32006KT 270V360 //// // ////// 27/13 Q1019 RE//
27°C / 13°C 310º variable 290º to 350º 9kt - 1019 - LGIO 211350Z AUTO 31009KT 290V350 //// // ////// 27/13 Q1019 RE//
27°C / 13°C 330º 10kt - 1019 - LGIO 211320Z AUTO 33010KT //// // ////// 27/13 Q1019 RE//
27°C / 12°C 320º variable 280º to 340º 7kt - 1019 - LGIO 211250Z AUTO 32007KT 280V340 //// // ////// 27/12 Q1019 RE//
27°C / 13°C 300º variable 260º to 040º 5kt - 1020 - LGIO 211220Z AUTO 30005KT 260V040 //// // ////// 27/13 Q1020 RE//
VFR 26°C / 14°C variable 4kt >10km - Few Clouds 3500ft 1020 - LGIO 211150Z VRB04KT 9999 FEW035 26/14 Q1020
VFR 26°C / 14°C 160º 3kt >10km - Few Clouds 3500ft 1020 - LGIO 211120Z 16003KT 9999 FEW035 26/14 Q1020
VFR 25°C / 14°C 90º 3kt >10km - Few Clouds 3500ft 1020 - LGIO 211050Z 09003KT 9999 FEW035 25/14 Q1020
VFR 24°C / 15°C 110º variable 080º to 150º 4kt >10km - Few Clouds 3500ft 1021 - LGIO 211020Z 11004KT 080V150 9999 FEW035 24/15 Q1021
VFR 22°C / 16°C 110º 5kt >10km - Few Clouds 3000ft 1021 - LGIO 210950Z 11005KT 9999 FEW030 22/16 Q1021
VFR 21°C / 16°C 130º variable 060º to 140º 4kt >10km - Few Clouds 1000ft 1021 - LGIO 210920Z 13004KT 060V140 9999 FEW010 21/16 Q1021
VFR 19°C / 16°C 150º 4kt >10km - Scattered Clouds 4000ft 1021 - LGIO 210850Z 15004KT 9999 SCT040 19/16 Q1021
VFR 17°C / 16°C 130º 2kt >10km - Broken Clouds 4000ft 1022 - LGIO 210820Z 13002KT 9999 BKN040 17/16 Q1022
VFR 17°C / 16°C 320º 2kt >10km Light Rain 1.00mm precipitation Vertical Visibility of 0ft. 1021 - LGIO 210750Z 32002KT 9999 -RA BKN040 17/16 Q1021 RETS
VFR 18°C / 16°C variable 4kt >10km Light Thunderstorm Rain 3.00mm precipitation Vertical Visibility of 0ft. 1021 - LGIO 210720Z VRB04KT 9999 -TSRA FEW030CB BKN035 18/16 Q1021
MVFR 18°C / 16°C 140º 1kt 7000m Thunderstorm Vertical Visibility of 0ft. 1020 - LGIO 210650Z 14001KT 7000 TS SCT025CB BKN035 18/16 Q1020
VFR 16°C / 16°C variable 0kt >10km - Broken Clouds 3500ft 1020 - LGIO 210620Z 00000KT 9999 BKN035 16/16 Q1020
VFR 16°C / 15°C 10º 1kt >10km - Broken Clouds 3500ft 1020 - LGIO 210550Z 01001KT 9999 BKN035 16/15 Q1020
15°C / 15°C variable 1kt - 1019 - LGIO 210520Z AUTO VRB01KT //// // ////// 15/15 Q1019 RE//
15°C / 14°C variable 1kt - 1019 - LGIO 210450Z AUTO VRB01KT //// // ////// 15/14 Q1019 RE//

24°C / 13°C

[Mais]
Vento 310º variable 250º to 320º 4kt
Visibilidade
Tempo -
Nuvens
Pressão 1019
Mudança -
Bruto LGIO 211620Z AUTO 31004KT 250V320 //// // ////// 24/13 Q1019 RE//

25°C / 13°C

[Mais]
Vento 290º variable 250º to 320º 6kt
Visibilidade
Tempo -
Nuvens
Pressão 1019
Mudança -
Bruto LGIO 211550Z AUTO 29006KT 250V320 //// // ////// 25/13 Q1019 RE//

26°C / 13°C

[Mais]
Vento 290º variable 250º to 320º 6kt
Visibilidade
Tempo -
Nuvens
Pressão 1019
Mudança -
Bruto LGIO 211520Z AUTO 29006KT 250V320 //// // ////// 26/13 Q1019 RE//

27°C / 13°C

[Mais]
Vento 300º variable 240º to 330º 7kt
Visibilidade
Tempo -
Nuvens
Pressão 1019
Mudança -
Bruto LGIO 211450Z AUTO 30007KT 240V330 //// // ////// 27/13 Q1019 RE//

27°C / 13°C

[Mais]
Vento 320º variable 270º to 360º 6kt
Visibilidade
Tempo -
Nuvens
Pressão 1019
Mudança -
Bruto LGIO 211420Z AUTO 32006KT 270V360 //// // ////// 27/13 Q1019 RE//

27°C / 13°C

[Mais]
Vento 310º variable 290º to 350º 9kt
Visibilidade
Tempo -
Nuvens
Pressão 1019
Mudança -
Bruto LGIO 211350Z AUTO 31009KT 290V350 //// // ////// 27/13 Q1019 RE//

27°C / 13°C

[Mais]
Vento 330º 10kt
Visibilidade
Tempo -
Nuvens
Pressão 1019
Mudança -
Bruto LGIO 211320Z AUTO 33010KT //// // ////// 27/13 Q1019 RE//

27°C / 12°C

[Mais]
Vento 320º variable 280º to 340º 7kt
Visibilidade
Tempo -
Nuvens
Pressão 1019
Mudança -
Bruto LGIO 211250Z AUTO 32007KT 280V340 //// // ////// 27/12 Q1019 RE//

27°C / 13°C

[Mais]
Vento 300º variable 260º to 040º 5kt
Visibilidade
Tempo -
Nuvens
Pressão 1020
Mudança -
Bruto LGIO 211220Z AUTO 30005KT 260V040 //// // ////// 27/13 Q1020 RE//

VFR

26°C / 14°C

[Mais]
Vento variable 4kt
Visibilidade >10km
Tempo -
Nuvens Few Clouds 3500ft
Pressão 1020
Mudança -
Bruto LGIO 211150Z VRB04KT 9999 FEW035 26/14 Q1020

VFR

26°C / 14°C

[Mais]
Vento 160º 3kt
Visibilidade >10km
Tempo -
Nuvens Few Clouds 3500ft
Pressão 1020
Mudança -
Bruto LGIO 211120Z 16003KT 9999 FEW035 26/14 Q1020

VFR

25°C / 14°C

[Mais]
Vento 90º 3kt
Visibilidade >10km
Tempo -
Nuvens Few Clouds 3500ft
Pressão 1020
Mudança -
Bruto LGIO 211050Z 09003KT 9999 FEW035 25/14 Q1020

VFR

24°C / 15°C

[Mais]
Vento 110º variable 080º to 150º 4kt
Visibilidade >10km
Tempo -
Nuvens Few Clouds 3500ft
Pressão 1021
Mudança -
Bruto LGIO 211020Z 11004KT 080V150 9999 FEW035 24/15 Q1021

VFR

22°C / 16°C

[Mais]
Vento 110º 5kt
Visibilidade >10km
Tempo -
Nuvens Few Clouds 3000ft
Pressão 1021
Mudança -
Bruto LGIO 210950Z 11005KT 9999 FEW030 22/16 Q1021

VFR

21°C / 16°C

[Mais]
Vento 130º variable 060º to 140º 4kt
Visibilidade >10km
Tempo -
Nuvens Few Clouds 1000ft
Pressão 1021
Mudança -
Bruto LGIO 210920Z 13004KT 060V140 9999 FEW010 21/16 Q1021

VFR

19°C / 16°C

[Mais]
Vento 150º 4kt
Visibilidade >10km
Tempo -
Nuvens Scattered Clouds 4000ft
Pressão 1021
Mudança -
Bruto LGIO 210850Z 15004KT 9999 SCT040 19/16 Q1021

VFR

17°C / 16°C

[Mais]
Vento 130º 2kt
Visibilidade >10km
Tempo -
Nuvens Broken Clouds 4000ft
Pressão 1022
Mudança -
Bruto LGIO 210820Z 13002KT 9999 BKN040 17/16 Q1022

VFR

17°C / 16°C

[Mais]
Vento 320º 2kt
Visibilidade >10km
Tempo Light Rain 1.00mm precipitation
Nuvens Vertical Visibility of 0ft.
Pressão 1021
Mudança -
Bruto LGIO 210750Z 32002KT 9999 -RA BKN040 17/16 Q1021 RETS

VFR

18°C / 16°C

[Mais]
Vento variable 4kt
Visibilidade >10km
Tempo Light Thunderstorm Rain 3.00mm precipitation
Nuvens Vertical Visibility of 0ft.
Pressão 1021
Mudança -
Bruto LGIO 210720Z VRB04KT 9999 -TSRA FEW030CB BKN035 18/16 Q1021

MVFR

18°C / 16°C

[Mais]
Vento 140º 1kt
Visibilidade 7000m
Tempo Thunderstorm
Nuvens Vertical Visibility of 0ft.
Pressão 1020
Mudança -
Bruto LGIO 210650Z 14001KT 7000 TS SCT025CB BKN035 18/16 Q1020

VFR

16°C / 16°C

[Mais]
Vento variable 0kt
Visibilidade >10km
Tempo -
Nuvens Broken Clouds 3500ft
Pressão 1020
Mudança -
Bruto LGIO 210620Z 00000KT 9999 BKN035 16/16 Q1020

VFR

16°C / 15°C

[Mais]
Vento 10º 1kt
Visibilidade >10km
Tempo -
Nuvens Broken Clouds 3500ft
Pressão 1020
Mudança -
Bruto LGIO 210550Z 01001KT 9999 BKN035 16/15 Q1020

15°C / 15°C

[Mais]
Vento variable 1kt
Visibilidade
Tempo -
Nuvens
Pressão 1019
Mudança -
Bruto LGIO 210520Z AUTO VRB01KT //// // ////// 15/15 Q1019 RE//

15°C / 14°C

[Mais]
Vento variable 1kt
Visibilidade
Tempo -
Nuvens
Pressão 1019
Mudança -
Bruto LGIO 210450Z AUTO VRB01KT //// // ////// 15/14 Q1019 RE//

TAF para Ioánnina (LGIO)

From till


From till Wind variable 3kt. Visibility 10km or more. Scattered Clouds 2500ft. Scattered Clouds 8000ft.
With 40% probability, Temporarly from till Visibility 6000m. Rain . Broken Clouds 2500ft. Broken Clouds 7000ft.

Bruto: TAF LGIO 211400Z 2115/2124 VRB03KT 9999 SCT025 SCT080 PROB40 TEMPO 2115/2117 6000 RA BKN025 BKN070

Imagens atuais de satélite e precipitação para Ioánnina, Grécia

O marcador de lugar é colocado em Ioánnina. [Mais]

A imagem de satélite em tempo real combina luz visível durante o dia com radiação infravermelha durante a noite. À noite, a imagem não é escura, pois a radiação infravermelha pode detectar diferenças de temperatura. Infelizmente, nuvens baixas e neblina são difíceis de distinguir das temperaturas do solo e, portanto, podem ser quase invisíveis durante a noite. As imagens de satélite Meteosat para a Europa são atualizadas em tempo real a cada 5 minutos. GOES-16/GOES-17 ( América do Norte e do Sul) e Himawari (Ásia) são atualizadas a cada 10 minutos.

A precipitação é estimada por radares e satélites. A estimativa da precipitação noturna por satélites é menos precisa do que durante o dia. Cruzes laranjas identificam lugares onde relâmpagos foram detetados (em Europa).

Copyright 2021 EUMETSAT / meteoblue. Dados de relâmpagos fornecidos por nowcast.

Radar e precipitação nowcast para Ioánnina

Chuvisco
Leve
Moderado
Forte
Muito forte
Granizo

O marcador do lugar é colocado em Ioánnina. Esta animação mostra o radar de precipitação para a última hora, assim como a 1h previsão. A queda de neve pode ser invisível para o radar. A intensidade da precipitação é codificada por cores, variando do azul claro ao laranja.

Situação meteorológica atual e alertas

EUMETNET – MeteoAlarm

pictomap

Fonte: HNMS

Atrasos horários entre este site e www.meteoalarm.eu são possíveis. Para obter as informações mais atualizadas sobre os níveis de alerta, conforme publicado pelos Serviços Meteorológicos Nacionais participantes, visite o www.meteoalarm.eu.